createdAt,value
2023-05-01T00:00:19.354Z,101134.34
2023-05-01T00:02:47.295Z,101241.06
2023-05-01T00:05:16.888Z,101236.66
2023-05-01T00:07:45.088Z,101229.34
2023-05-01T00:10:13.337Z,101138.94
2023-05-01T00:12:41.765Z,101227.47
2023-05-01T00:15:12.859Z,101210.72
2023-05-01T00:17:40.846Z,101220.38
2023-05-01T00:20:10.292Z,101225.81
2023-05-01T00:22:40.332Z,101214.94
2023-05-01T00:25:10.599Z,101194.00
2023-05-01T00:27:39.307Z,101217.66
2023-05-01T00:30:14.650Z,101214.09
2023-05-01T00:32:42.655Z,101214.94
2023-05-01T00:35:11.089Z,101214.09
2023-05-01T00:37:40.395Z,101214.09
2023-05-01T00:40:09.529Z,101146.94
2023-05-01T00:42:39.195Z,101199.88
2023-05-01T00:45:10.187Z,101200.69
2023-05-01T00:47:38.158Z,101197.97
2023-05-01T00:50:06.945Z,101200.69
2023-05-01T00:52:35.363Z,101193.41
2023-05-01T00:55:05.438Z,101195.28
2023-05-01T00:57:33.419Z,101190.88
2023-05-01T01:00:01.387Z,101166.22
2023-05-01T01:02:29.734Z,101182.72
2023-05-01T01:04:57.890Z,101159.94
2023-05-01T01:07:30.241Z,101175.66
2023-05-01T01:10:04.978Z,101166.66
2023-05-01T01:12:39.408Z,101111.25
2023-05-01T01:15:12.105Z,101164.78
2023-05-01T01:17:43.546Z,101098.25
2023-05-01T01:20:19.734Z,101149.09
2023-05-01T01:22:51.366Z,101067.28
2023-05-01T01:25:48.419Z,101134.03
2023-05-01T01:28:39.954Z,101151.59
2023-05-01T01:31:19.060Z,101147.41
2023-05-01T01:34:05.920Z,101146.16
2023-05-01T01:36:42.476Z,101127.97
2023-05-01T01:39:17.892Z,101151.78
2023-05-01T01:41:48.729Z,101148.88
2023-05-01T01:44:20.892Z,101126.06
2023-05-01T01:46:50.343Z,101089.91
2023-05-01T01:49:21.330Z,101133.59
2023-05-01T01:51:50.046Z,101126.50
2023-05-01T01:54:20.499Z,101134.44
2023-05-01T01:56:48.409Z,101130.88
2023-05-01T01:59:16.312Z,101134.44
2023-05-01T02:01:44.668Z,101122.75
2023-05-01T02:04:13.029Z,101125.47
2023-05-01T02:06:42.401Z,101098.91
2023-05-01T02:09:10.391Z,101120.03
2023-05-01T02:11:38.818Z,101119.19
2023-05-01T02:14:06.972Z,101120.88
2023-05-01T02:16:35.220Z,101115.63
2023-05-01T02:19:03.885Z,101105.84
2023-05-01T02:21:32.367Z,101086.41
2023-05-01T02:24:02.005Z,101104.16
2023-05-01T02:26:30.615Z,101101.25
2023-05-01T02:28:59.399Z,101095.81
2023-05-01T02:31:27.938Z,101094.13
2023-05-01T02:33:55.930Z,101090.56
2023-05-01T02:36:23.815Z,101071.13
2023-05-01T02:38:52.146Z,101090.38
2023-05-01T02:41:22.479Z,101085.97
2023-05-01T02:43:50.395Z,101081.59
2023-05-01T02:46:18.323Z,101027.88
2023-05-01T02:48:46.308Z,101079.69
2023-05-01T02:51:14.482Z,101026.00
2023-05-01T02:53:42.397Z,101075.13
2023-05-01T02:56:10.320Z,101066.13
2023-05-01T02:58:39.626Z,101062.38
2023-05-01T03:01:08.058Z,101060.69
2023-05-01T03:03:36.251Z,101063.22
2023-05-01T03:06:04.881Z,101058.81
2023-05-01T03:08:32.851Z,101047.09
2023-05-01T03:11:01.377Z,101048.78
2023-05-01T03:13:29.338Z,101040.84
2023-05-01T03:15:58.717Z,101046.06
2023-05-01T03:18:26.816Z,101028.53
2023-05-01T03:20:56.817Z,101001.78
2023-05-01T03:23:24.721Z,101037.91
2023-05-01T03:25:52.665Z,101022.66
2023-05-01T03:28:21.783Z,101029.53
2023-05-01T03:30:51.278Z,101027.88
2023-05-01T03:33:20.583Z,101007.63
2023-05-01T03:35:48.803Z,101020.53
2023-05-01T03:38:17.042Z,101021.38
2023-05-01T03:40:45.435Z,101018.91
2023-05-01T03:43:13.346Z,101023.25
2023-05-01T03:45:43.258Z,101022.22
2023-05-01T03:48:13.801Z,101018.91
2023-05-01T03:50:43.492Z,100960.00
2023-05-01T03:53:11.438Z,101022.22
2023-05-01T03:55:40.007Z,101014.31
2023-05-01T03:58:08.156Z,101018.47
2023-05-01T04:00:36.434Z,101004.25
2023-05-01T04:03:04.511Z,101014.06
2023-05-01T04:05:32.619Z,101007.59
2023-05-01T04:08:02.046Z,101008.63
2023-05-01T04:10:30.947Z,101011.16
2023-05-01T04:12:58.839Z,101005.91
2023-05-01T04:15:27.115Z,101007.59
2023-05-01T04:17:56.825Z,101004.88
2023-05-01T04:20:24.779Z,101001.31
2023-05-01T04:22:54.971Z,100982.75
2023-05-01T04:25:24.952Z,101018.47
2023-05-01T04:27:52.944Z,101004.88
2023-05-01T04:30:21.147Z,100942.66
2023-05-01T04:32:49.413Z,100944.09
2023-05-01T04:35:17.694Z,100970.22
2023-05-01T04:37:45.934Z,100971.28
2023-05-01T04:40:14.429Z,101000.09
2023-05-01T04:42:44.577Z,100972.53
2023-05-01T04:45:13.243Z,100862.31
2023-05-01T04:47:41.516Z,100998.41
2023-05-01T04:50:10.786Z,100937.22
2023-05-01T04:52:39.767Z,100939.94
2023-05-01T04:55:09.616Z,100873.78
2023-05-01T04:57:38.024Z,100995.25
2023-05-01T05:00:16.384Z,100591.59
2023-05-01T05:02:49.103Z,100527.16
2023-05-01T05:05:18.858Z,100653.28
2023-05-01T05:07:49.023Z,100848.31
2023-05-01T05:10:19.847Z,100572.22
2023-05-01T05:12:51.259Z,100876.91
2023-05-01T05:15:23.203Z,100999.84
2023-05-01T05:17:55.897Z,100599.13
2023-05-01T05:20:25.213Z,100757.16
2023-05-01T05:22:57.063Z,101002.59
2023-05-01T05:25:28.227Z,101002.16
2023-05-01T05:27:56.200Z,100999.66
2023-05-01T05:30:27.164Z,100901.53
2023-05-01T05:32:57.226Z,101002.38
2023-05-01T05:35:25.352Z,100999.66
2023-05-01T05:37:53.328Z,100905.28
2023-05-01T05:40:21.238Z,101003.41
2023-05-01T05:42:49.443Z,100997.97
2023-05-01T05:45:17.527Z,100941.22
2023-05-01T05:47:46.882Z,100996.31
2023-05-01T05:50:14.785Z,100994.41
2023-05-01T05:52:43.139Z,100973.56
2023-05-01T05:55:11.226Z,100960.41
2023-05-01T05:57:39.118Z,100996.31
2023-05-01T06:00:10.683Z,100994.41
2023-05-01T06:02:39.150Z,100916.13
2023-05-01T06:05:10.589Z,100952.03
2023-05-01T06:07:38.902Z,100993.81
2023-05-01T06:10:07.797Z,100992.78
2023-05-01T06:12:37.729Z,100996.31
2023-05-01T06:15:15.638Z,100995.50
2023-05-01T06:17:43.713Z,100901.09
2023-05-01T06:20:14.333Z,100993.63
2023-05-01T06:22:42.693Z,100987.34
2023-05-01T06:25:11.341Z,100990.91
2023-05-01T06:27:39.231Z,100988.19
2023-05-01T06:30:10.874Z,100990.91
2023-05-01T06:32:38.914Z,100988.97
2023-05-01T06:35:08.016Z,100937.03
2023-05-01T06:37:38.473Z,100873.78
2023-05-01T06:40:07.535Z,100991.69
2023-05-01T06:42:35.857Z,100992.34
2023-05-01T06:45:04.598Z,100981.25
2023-05-01T06:47:32.591Z,100977.50
2023-05-01T06:50:02.931Z,100986.47
2023-05-01T06:52:33.015Z,100981.88
2023-05-01T06:55:02.436Z,100984.59
2023-05-01T06:57:30.442Z,100970.19
2023-05-01T06:59:58.602Z,100979.16
2023-05-01T07:02:27.389Z,100975.00
2023-05-01T07:04:55.429Z,100979.16
2023-05-01T07:07:23.578Z,100979.38
2023-05-01T07:09:51.723Z,100994.63
2023-05-01T07:12:21.874Z,100980.44
2023-05-01T07:14:49.855Z,100961.22
2023-05-01T07:17:17.800Z,100976.03
2023-05-01T07:19:45.677Z,100977.06
2023-05-01T07:22:13.970Z,100973.13
2023-05-01T07:24:41.892Z,100972.09
2023-05-01T07:27:09.912Z,100981.28
2023-05-01T07:29:40.017Z,100953.72
2023-05-01T07:32:08.422Z,100970.41
2023-05-01T07:34:36.388Z,100980.44
2023-05-01T07:37:04.860Z,100977.72
2023-05-01T07:39:32.785Z,100973.13
2023-05-01T07:42:01.626Z,100967.88
2023-05-01T07:44:29.593Z,100965.19
2023-05-01T07:47:03.697Z,100963.28
2023-05-01T07:49:31.693Z,100962.47
2023-05-01T07:51:59.979Z,100967.06
2023-05-01T07:54:27.866Z,100961.63
2023-05-01T07:56:56.354Z,100955.16
2023-05-01T07:59:24.400Z,100966.84
2023-05-01T08:01:52.599Z,100964.97
2023-05-01T08:04:22.840Z,100960.16
2023-05-01T08:06:51.309Z,100961.22
2023-05-01T08:09:19.315Z,100969.16
2023-05-01T08:11:47.647Z,100965.59
2023-05-01T08:14:17.644Z,100952.22
2023-05-01T08:16:45.619Z,100955.56
2023-05-01T08:19:13.673Z,100967.69
2023-05-01T08:21:43.199Z,100955.16
2023-05-01T08:24:11.728Z,100949.50
2023-05-01T08:26:39.747Z,100967.69
2023-05-01T08:29:07.635Z,100964.13
2023-05-01T08:31:37.918Z,100960.38
2023-05-01T08:34:05.989Z,100953.25
2023-05-01T08:36:34.400Z,100959.53
2023-05-01T08:39:03.885Z,100939.28
2023-05-01T08:41:32.274Z,100954.94
2023-05-01T08:44:00.165Z,100951.97
2023-05-01T08:46:33.536Z,100953.25
2023-05-01T08:49:01.490Z,100959.53
2023-05-01T08:51:29.997Z,100926.16
2023-05-01T08:53:57.969Z,100964.72
2023-05-01T08:56:27.284Z,100957.66
2023-05-01T08:58:55.261Z,100962.00
2023-05-01T09:01:24.536Z,100956.56
2023-05-01T09:03:52.615Z,100963.91
2023-05-01T09:06:21.405Z,100963.91
2023-05-01T09:08:49.438Z,100963.91
2023-05-01T09:11:17.721Z,100924.47
2023-05-01T09:13:47.137Z,100974.78
2023-05-01T09:16:15.081Z,100974.78
2023-05-01T09:18:43.069Z,100966.00
2023-05-01T09:21:12.268Z,100960.38
2023-05-01T09:23:40.938Z,100961.41
2023-05-01T09:26:09.007Z,100963.91
2023-05-01T09:28:43.916Z,100966.63
2023-05-01T09:31:28.600Z,100955.78
2023-05-01T09:33:57.271Z,100964.72
2023-05-01T09:36:25.813Z,100961.19
2023-05-01T09:38:53.783Z,100960.13
2023-05-01T09:41:22.424Z,100955.78
2023-05-01T09:43:53.681Z,100965.56
2023-05-01T09:46:22.778Z,100918.00
2023-05-01T09:48:56.481Z,100958.25
2023-05-01T09:51:26.940Z,100947.38
2023-05-01T09:53:56.364Z,100956.38
2023-05-01T09:56:24.285Z,100952.63
2023-05-01T09:58:52.503Z,100950.09
2023-05-01T10:01:20.821Z,100940.91
2023-05-01T10:03:56.726Z,100944.66
2023-05-01T10:06:29.312Z,100945.31
2023-05-01T10:08:57.882Z,100938.00
2023-05-01T10:11:27.089Z,100943.41
2023-05-01T10:14:08.790Z,100938.00
2023-05-01T10:16:37.506Z,100884.19
2023-05-01T10:19:06.840Z,100935.28
2023-05-01T10:21:35.338Z,100903.13
2023-05-01T10:24:05.696Z,100930.66
2023-05-01T10:26:33.840Z,100934.00
2023-05-01T10:29:01.977Z,100915.63
2023-05-01T10:31:32.659Z,100922.53
2023-05-01T10:34:01.125Z,100926.69
2023-05-01T10:36:34.165Z,100918.53
2023-05-01T10:39:02.118Z,100918.72
2023-05-01T10:42:10.889Z,100917.69
2023-05-01T10:44:39.018Z,100921.44
2023-05-01T10:47:44.115Z,100913.09
2023-05-01T10:50:12.518Z,100914.97
2023-05-01T10:53:18.788Z,100909.31
2023-05-01T10:55:47.481Z,100905.16
2023-05-01T10:58:36.072Z,100893.47
2023-05-01T11:01:29.116Z,100905.97
2023-05-01T11:03:57.391Z,100878.25
2023-05-01T11:06:25.435Z,100898.91
2023-05-01T11:08:55.502Z,100895.75
2023-05-01T11:11:51.293Z,100896.59
2023-05-01T11:14:19.366Z,100893.88
2023-05-01T11:16:48.922Z,100895.53
2023-05-01T11:19:50.531Z,100886.53
2023-05-01T11:22:19.910Z,100883.00
2023-05-01T11:24:49.152Z,100885.06
2023-05-01T11:27:18.376Z,100889.25
2023-05-01T11:29:48.519Z,100895.53
2023-05-01T11:32:20.807Z,100900.13
2023-05-01T11:34:49.859Z,100895.31
2023-05-01T11:37:17.791Z,100857.34
2023-05-01T11:39:52.210Z,100886.09
2023-05-01T11:42:30.827Z,100888.63
2023-05-01T11:45:12.118Z,100882.13
2023-05-01T11:47:40.293Z,100884.00
2023-05-01T11:50:09.391Z,100856.88
2023-05-01T11:52:45.181Z,100879.19
2023-05-01T11:55:14.517Z,100881.69
2023-05-01T11:57:49.521Z,100876.25
2023-05-01T12:00:18.239Z,100886.09
2023-05-01T12:02:59.808Z,100883.16
2023-05-01T12:05:28.430Z,100866.88
2023-05-01T12:08:08.096Z,100826.63
2023-05-01T12:10:37.885Z,100877.47
2023-05-01T12:13:06.070Z,100877.72
2023-05-01T12:15:35.354Z,100800.38
2023-05-01T12:18:03.277Z,100745.31
2023-05-01T12:20:40.796Z,100824.53
2023-05-01T12:23:10.547Z,100872.69
2023-05-01T12:25:40.831Z,100849.56
2023-05-01T12:28:13.072Z,100837.66
2023-05-01T12:30:41.366Z,100865.38
2023-05-01T12:33:10.592Z,100857.44
2023-05-01T12:35:39.182Z,100861.22
2023-05-01T12:38:14.375Z,100854.72
2023-05-01T12:40:53.777Z,100849.28
2023-05-01T12:43:22.192Z,100823.25
2023-05-01T12:45:52.890Z,100859.34
2023-05-01T12:48:20.855Z,100859.13
2023-05-01T12:50:54.378Z,100853.28
2023-05-01T12:53:23.269Z,100851.19
2023-05-01T12:55:53.348Z,100853.06
2023-05-01T12:58:21.363Z,100833.44
2023-05-01T13:00:50.171Z,100842.63
2023-05-01T13:03:23.129Z,100853.06
2023-05-01T13:05:52.406Z,100840.31
2023-05-01T13:08:30.811Z,100841.38
2023-05-01T13:11:01.462Z,100841.38
2023-05-01T13:13:30.452Z,100756.56
2023-05-01T13:16:05.678Z,100843.25
2023-05-01T13:18:34.157Z,100837.81
2023-05-01T13:21:10.023Z,100841.38
2023-05-01T13:23:38.585Z,100841.38
2023-05-01T13:26:09.193Z,100844.28
2023-05-01T13:28:38.554Z,100832.84
2023-05-01T13:31:12.754Z,100861.44
2023-05-01T13:33:41.366Z,100861.22
2023-05-01T13:36:21.708Z,100859.34
2023-05-01T13:38:54.584Z,100861.44
2023-05-01T13:41:24.536Z,100829.78
2023-05-01T13:43:53.575Z,100854.97
2023-05-01T13:46:23.196Z,100796.19
2023-05-01T13:48:51.358Z,100859.56
2023-05-01T13:51:22.666Z,100862.28
2023-05-01T13:53:50.610Z,100856.22
2023-05-01T13:56:18.719Z,100867.72
2023-05-01T13:58:48.071Z,100868.53
2023-05-01T14:01:16.917Z,100871.47
2023-05-01T14:03:44.940Z,100863.31
2023-05-01T14:06:14.026Z,100869.59
2023-05-01T14:08:43.141Z,100877.75
2023-05-01T14:11:11.852Z,100881.28
2023-05-01T14:13:41.296Z,100806.47
2023-05-01T14:16:11.759Z,100878.59
2023-05-01T14:18:44.710Z,100884.00
2023-05-01T14:21:13.186Z,100890.28
2023-05-01T14:23:42.050Z,100893.22
2023-05-01T14:26:11.232Z,100885.06
2023-05-01T14:28:42.485Z,100892.16
2023-05-01T14:31:12.242Z,100890.28
2023-05-01T14:33:42.744Z,100897.41
2023-05-01T14:36:10.731Z,100887.78
2023-05-01T14:38:39.385Z,100897.81
2023-05-01T14:41:10.044Z,100903.03
2023-05-01T14:43:39.108Z,100906.81
2023-05-01T14:46:07.252Z,100917.66
2023-05-01T14:48:37.665Z,100917.03
2023-05-01T14:51:06.543Z,100928.53
2023-05-01T14:53:34.672Z,100945.69
2023-05-01T14:56:02.674Z,100952.78
2023-05-01T14:58:30.622Z,100963.88
2023-05-01T15:00:58.836Z,100971.81
2023-05-01T15:03:27.265Z,100970.97
2023-05-01T15:05:56.694Z,100983.72
2023-05-01T15:08:24.719Z,100981.00
2023-05-01T15:10:53.453Z,100983.72
2023-05-01T15:13:21.844Z,100974.75
2023-05-01T15:15:49.770Z,100988.31
2023-05-01T15:18:18.506Z,100991.25
2023-05-01T15:20:46.791Z,100993.75
2023-05-01T15:23:16.136Z,100913.22
2023-05-01T15:25:45.289Z,100992.31
2023-05-01T15:28:14.143Z,100999.41
2023-05-01T15:30:45.116Z,100994.19
2023-05-01T15:33:13.715Z,100988.75
2023-05-01T15:35:43.149Z,100990.84
2023-05-01T15:38:11.016Z,100997.13
2023-05-01T15:40:40.725Z,100991.69
2023-05-01T15:43:08.669Z,100997.31
2023-05-01T15:45:42.593Z,100948.72
2023-05-01T15:48:11.216Z,100999.00
2023-05-01T15:50:39.750Z,101000.88
2023-05-01T15:53:07.638Z,100998.16
2023-05-01T15:55:35.572Z,101003.59
2023-05-01T15:58:04.905Z,101018.03
2023-05-01T16:00:35.796Z,101022.63
2023-05-01T16:03:04.565Z,101031.59
2023-05-01T16:05:32.903Z,101027.00
2023-05-01T16:08:01.643Z,101028.88
2023-05-01T16:10:29.630Z,101016.53
2023-05-01T16:12:57.537Z,101015.31
2023-05-01T16:15:26.858Z,100998.19
2023-05-01T16:17:55.083Z,101028.88
2023-05-01T16:20:23.311Z,101029.94
2023-05-01T16:22:52.025Z,101033.50
2023-05-01T16:25:21.319Z,101031.41
2023-05-01T16:27:49.699Z,100995.06
2023-05-01T16:30:17.680Z,101003.19
2023-05-01T16:32:47.119Z,101025.13
2023-05-01T16:35:17.441Z,101010.31
2023-05-01T16:37:45.431Z,101030.56
2023-05-01T16:40:17.163Z,101028.47
2023-05-01T16:42:47.053Z,101024.69
2023-05-01T16:45:15.157Z,101013.03
2023-05-01T16:47:43.077Z,101024.69
2023-05-01T16:50:12.488Z,100938.50
2023-05-01T16:52:40.892Z,100947.88
2023-05-01T16:55:10.174Z,101023.66
2023-05-01T16:57:38.163Z,100999.66
2023-05-01T17:00:09.679Z,101036.41
2023-05-01T17:02:39.183Z,101034.53
2023-05-01T17:05:08.157Z,101030.97
2023-05-01T17:07:37.474Z,101008.19
2023-05-01T17:10:06.179Z,101026.56
2023-05-01T17:12:36.619Z,100937.03
2023-05-01T17:15:04.882Z,101021.97
2023-05-01T17:17:32.822Z,101015.72
2023-05-01T17:20:01.177Z,100989.22
2023-05-01T17:22:29.711Z,101032.25
2023-05-01T17:25:02.355Z,101048.13
2023-05-01T17:27:30.830Z,101035.56
2023-05-01T17:29:58.925Z,101029.09
2023-05-01T17:32:36.289Z,101040.81
2023-05-01T17:35:05.789Z,101046.22
2023-05-01T17:37:34.180Z,101046.03
2023-05-01T17:40:04.112Z,101046.88
2023-05-01T17:42:32.466Z,101049.59
2023-05-01T17:45:00.446Z,101061.50
2023-05-01T17:47:28.717Z,101014.50
2023-05-01T17:49:56.693Z,101069.41
2023-05-01T17:52:24.996Z,101047.91
2023-05-01T17:54:52.915Z,101069.63
2023-05-01T17:57:22.193Z,101065.84
2023-05-01T17:59:51.212Z,101020.34
2023-05-01T18:02:19.503Z,101064.41
2023-05-01T18:04:50.181Z,101073.81
2023-05-01T18:07:18.229Z,101081.75
2023-05-01T18:09:48.148Z,101044.75
2023-05-01T18:12:16.495Z,101042.47
2023-05-01T18:14:47.115Z,101081.34
2023-05-01T18:17:15.525Z,101094.75
2023-05-01T18:19:43.484Z,101086.59
2023-05-01T18:22:11.750Z,101090.34
2023-05-01T18:24:41.202Z,101087.84
2023-05-01T18:27:09.621Z,101050.44
2023-05-01T18:29:38.016Z,101098.91
2023-05-01T18:32:08.960Z,101096.41
2023-05-01T18:34:38.104Z,101100.16
2023-05-01T18:37:06.098Z,101102.03
2023-05-01T18:39:34.080Z,101098.69
2023-05-01T18:42:03.552Z,101110.63
2023-05-01T18:44:31.440Z,101055.88
2023-05-01T18:46:59.410Z,101108.09
2023-05-01T18:49:28.819Z,101111.88
2023-05-01T18:51:57.119Z,101112.91
2023-05-01T18:54:25.018Z,101114.59
2023-05-01T18:56:52.919Z,101113.75
2023-05-01T18:59:21.737Z,101121.69
2023-05-01T19:01:51.423Z,101120.84
2023-05-01T19:04:19.902Z,101127.13
2023-05-01T19:06:49.305Z,101008.63
2023-05-01T19:09:17.219Z,101054.00
2023-05-01T19:11:45.406Z,101136.13
2023-05-01T19:14:13.348Z,101118.78
2023-05-01T19:16:41.686Z,101055.03
2023-05-01T19:19:09.668Z,101136.31
2023-05-01T19:21:38.819Z,101137.38
2023-05-01T19:24:08.468Z,101140.94
2023-05-01T19:26:36.364Z,101133.41
2023-05-01T19:29:04.295Z,101153.69
2023-05-01T19:31:32.491Z,101153.88
2023-05-01T19:34:00.722Z,101141.78
2023-05-01T19:36:28.716Z,101155.78
2023-05-01T19:38:56.926Z,101156.81
2023-05-01T19:41:26.409Z,101158.72
2023-05-01T19:43:54.338Z,101142.63
2023-05-01T19:46:22.336Z,101156.19
2023-05-01T19:48:50.327Z,101165.81
2023-05-01T19:51:18.599Z,101168.75
2023-05-01T19:53:47.094Z,101175.00
2023-05-01T19:56:14.986Z,101178.78
2023-05-01T19:58:44.351Z,101088.25
2023-05-01T20:01:13.221Z,101161.00
2023-05-01T20:03:41.286Z,101181.28
2023-05-01T20:06:09.304Z,101175.66
2023-05-01T20:08:37.312Z,101183.16
2023-05-01T20:11:05.602Z,101184.22
2023-05-01T20:13:33.625Z,101187.75
2023-05-01T20:16:02.967Z,101183.38
2023-05-01T20:18:30.874Z,101186.09
2023-05-01T20:20:59.096Z,101196.97
2023-05-01T20:23:26.956Z,101188.19
2023-05-01T20:25:55.123Z,101190.91
2023-05-01T20:28:23.496Z,101196.13
2023-05-01T20:30:51.709Z,101194.44
2023-05-01T20:33:21.017Z,101196.13
2023-05-01T20:35:48.946Z,101197.78
2023-05-01T20:38:16.918Z,101200.50
2023-05-01T20:40:45.136Z,101199.69
2023-05-01T20:43:13.066Z,101207.84
2023-05-01T20:45:40.978Z,101205.53
2023-05-01T20:48:09.014Z,101213.25
2023-05-01T20:50:38.650Z,101195.69
2023-05-01T20:53:06.606Z,101201.56
2023-05-01T20:55:34.566Z,101209.94
2023-05-01T20:58:02.635Z,101198.41
2023-05-01T21:00:30.785Z,101218.69
2023-05-01T21:02:59.942Z,101218.69
2023-05-01T21:05:28.231Z,101217.84
2023-05-01T21:07:57.736Z,101210.53
2023-05-01T21:10:25.700Z,101218.69
2023-05-01T21:12:56.157Z,101223.53
2023-05-01T21:15:24.114Z,101208.03
2023-05-01T21:17:52.185Z,101228.97
2023-05-01T21:20:27.021Z,101229.78
2023-05-01T21:22:54.963Z,101230.84
2023-05-01T21:25:26.985Z,101238.16
2023-05-01T21:27:55.095Z,101212.00
2023-05-01T21:30:30.667Z,101219.75
2023-05-01T21:32:58.721Z,101241.91
2023-05-01T21:35:26.773Z,101241.06
2023-05-01T21:37:54.705Z,101251.94
2023-05-01T21:40:24.116Z,101245.88
2023-05-01T21:42:52.688Z,101251.09
2023-05-01T21:45:21.027Z,101258.41
2023-05-01T21:47:50.588Z,101263.84
2023-05-01T21:50:19.221Z,101266.56
2023-05-01T21:52:48.373Z,101252.53
2023-05-01T21:55:18.640Z,101264.09
2023-05-01T21:57:49.801Z,101272.22
2023-05-01T22:00:19.019Z,101276.81
2023-05-01T22:02:48.176Z,101283.09
2023-05-01T22:05:16.887Z,101279.53
2023-05-01T22:07:45.890Z,101281.41
2023-05-01T22:10:15.719Z,101276.81
2023-05-01T22:12:43.993Z,101277.66
2023-05-01T22:15:14.274Z,101282.25
2023-05-01T22:17:42.220Z,101283.31
2023-05-01T22:20:10.614Z,101284.13
2023-05-01T22:22:39.626Z,101261.94
2023-05-01T22:25:08.216Z,101250.44
2023-05-01T22:27:36.169Z,101287.91
2023-05-01T22:30:04.293Z,101295.22
2023-05-01T22:32:33.786Z,101300.63
2023-05-01T22:35:01.761Z,101300.44
2023-05-01T22:37:29.671Z,101306.91
2023-05-01T22:39:58.003Z,101311.50
2023-05-01T22:42:26.327Z,101310.66
2023-05-01T22:44:54.320Z,101320.50
2023-05-01T22:47:22.224Z,101328.66
2023-05-01T22:49:51.649Z,101331.38
2023-05-01T22:52:19.896Z,101333.25
2023-05-01T22:54:48.324Z,101320.25
2023-05-01T22:57:16.284Z,101335.13
2023-05-01T22:59:45.626Z,101329.88
2023-05-01T23:02:16.678Z,101312.31
2023-05-01T23:04:44.566Z,101329.88
2023-05-01T23:07:14.377Z,101335.56
2023-05-01T23:09:42.332Z,101336.41
2023-05-01T23:12:12.632Z,101342.63
2023-05-01T23:14:40.554Z,101334.03
2023-05-01T23:17:08.464Z,101330.47
2023-05-01T23:19:36.555Z,101360.00
2023-05-01T23:22:08.351Z,101358.34
2023-05-01T23:24:42.438Z,101367.31
2023-05-01T23:27:10.436Z,101370.03
2023-05-01T23:29:38.709Z,101367.31
2023-05-01T23:32:08.362Z,101321.66
2023-05-01T23:34:37.076Z,101359.16
2023-05-01T23:37:05.157Z,101305.31
2023-05-01T23:39:33.102Z,101361.03
2023-05-01T23:42:02.673Z,101363.75
2023-05-01T23:44:30.846Z,101365.63
2023-05-01T23:46:58.752Z,101323.97
2023-05-01T23:49:26.697Z,101323.94
2023-05-01T23:51:54.867Z,101356.84
2023-05-01T23:54:22.817Z,101362.06
2023-05-01T23:56:50.723Z,101365.63
2023-05-01T23:59:19.981Z,101369.19
